Time;durP1;ratioP1;P1;durP2;ratioP2;P2;SDS_P1;SDS_P2;PMS_P1;PMS_P2;Temp;Humidity;BMP_temperature;BMP_pressure;BME280_temperature;BME280_humidity;BME280_pressure;Samples;Min_cycle;Max_cycle;Signal;HPM_P1;HPM_P2
2022/05/16 00:02:03;;;;;;;7.63;3.78;;;13.20;99.90;;;;;;5013678;28;20056;-80
2022/05/16 00:04:29;;;;;;;7.22;3.17;;;13.20;99.90;;;;;;5045612;28;20135;-80
2022/05/16 00:06:54;;;;;;;8.77;3.53;;;13.20;99.90;;;;;;5029715;28;20491;-80
2022/05/16 00:09:20;;;;;;;7.25;3.55;;;13.20;99.90;;;;;;5028934;28;20084;-80
2022/05/16 00:11:46;;;;;;;6.95;3.60;;;13.20;99.90;;;;;;5013891;28;20513;-80
2022/05/16 00:14:12;;;;;;;8.52;3.40;;;13.20;99.90;;;;;;5012562;28;20132;-80
2022/05/16 00:16:38;;;;;;;7.00;3.47;;;13.20;99.90;;;;;;5029144;28;20049;-80
2022/05/16 00:19:04;;;;;;;6.72;3.10;;;13.20;99.90;;;;;;5012714;28;20488;-80
2022/05/16 00:21:31;;;;;;;8.98;3.67;;;13.20;99.90;;;;;;5014216;28;20801;-80
2022/05/16 00:23:57;;;;;;;6.95;3.28;;;13.20;99.90;;;;;;5013183;28;20055;-79
2022/05/16 00:26:22;;;;;;;6.38;3.20;;;13.20;99.90;;;;;;5013415;28;20136;-79
2022/05/16 00:28:48;;;;;;;6.60;3.40;;;13.20;99.90;;;;;;5014616;28;20037;-79
2022/05/16 00:31:14;;;;;;;7.45;3.13;;;13.20;99.90;;;;;;5011776;28;20054;-79
2022/05/16 00:33:41;;;;;;;7.88;3.55;;;13.20;99.90;;;;;;5031087;28;20045;-79
2022/05/16 00:36:07;;;;;;;7.72;3.58;;;13.20;99.90;;;;;;5028126;28;21026;-79
2022/05/16 00:38:33;;;;;;;6.65;3.40;;;13.20;99.90;;;;;;5031289;28;20087;-79
2022/05/16 00:41:01;;;;;;;7.07;3.38;;;13.20;99.90;;;;;;5031427;28;20136;-82
2022/05/16 00:43:47;;;;;;;6.10;3.53;;;13.20;99.90;;;;;;5027992;28;20045;-79
2022/05/16 00:46:15;;;;;;;7.65;3.45;;;13.20;99.90;;;;;;5029851;28;20061;-79
2022/05/16 00:48:41;;;;;;;6.40;3.45;;;13.20;99.90;;;;;;5030186;28;20088;-79
2022/05/16 00:51:13;;;;;;;12.68;3.63;;;13.20;99.90;;;;;;5014493;28;20077;-79
2022/05/16 00:53:41;;;;;;;5.55;3.53;;;13.10;99.90;;;;;;5028058;28;20088;-79
2022/05/16 00:56:07;;;;;;;9.20;3.90;;;13.10;99.90;;;;;;5013638;28;20136;-79
2022/05/16 00:58:34;;;;;;;6.68;3.00;;;13.10;99.90;;;;;;5013870;28;20092;-79
2022/05/16 01:01:00;;;;;;;8.45;3.60;;;13.10;99.90;;;;;;5030164;28;20045;-79
2022/05/16 01:06:10;;;;;;;6.15;3.20;;;13.10;99.90;;;;;;5027602;28;20132;-79
2022/05/16 01:08:43;;;;;;;6.55;3.45;;;13.10;99.90;;;;;;5029319;28;20160;-79
2022/05/16 01:11:13;;;;;;;6.03;3.70;;;13.10;99.90;;;;;;5028730;28;20133;-79
2022/05/16 01:13:39;;;;;;;6.03;3.00;;;13.00;99.90;;;;;;5013384;28;20124;-79
2022/05/16 01:16:05;;;;;;;7.82;4.03;;;13.00;99.90;;;;;;5028961;28;20050;-79
2022/05/16 01:18:31;;;;;;;6.15;3.55;;;13.00;99.90;;;;;;5013906;28;20434;-79
2022/05/16 01:21:06;;;;;;;6.28;3.63;;;13.00;99.90;;;;;;5028959;28;20111;-79
2022/05/16 01:23:41;;;;;;;6.32;3.67;;;13.00;99.90;;;;;;5030027;28;20041;-80
2022/05/16 01:26:12;;;;;;;6.57;3.67;;;13.00;99.90;;;;;;5013106;28;20543;-78
2022/05/16 01:28:38;;;;;;;6.80;4.20;;;13.00;99.90;;;;;;5012327;28;20403;-79
2022/05/16 01:31:04;;;;;;;7.18;3.75;;;12.90;99.90;;;;;;5029024;28;20084;-79
2022/05/16 01:33:30;;;;;;;7.25;3.15;;;12.90;99.90;;;;;;5028563;28;20052;-79
2022/05/16 01:35:55;;;;;;;5.20;3.05;;;12.90;99.90;;;;;;5012870;28;20490;-79
2022/05/16 01:38:27;;;;;;;6.63;3.25;;;12.90;99.90;;;;;;5012905;28;20061;-79
2022/05/16 01:40:56;;;;;;;5.78;3.50;;;12.90;99.90;;;;;;5029096;28;20049;-79
2022/05/16 01:43:25;;;;;;;7.43;3.30;;;12.80;99.90;;;;;;5028223;28;20064;-79
2022/05/16 01:45:51;;;;;;;7.55;3.35;;;12.80;99.90;;;;;;5036797;28;20053;-78
2022/05/16 01:48:18;;;;;;;6.97;3.53;;;12.80;99.90;;;;;;5028011;28;20438;-79
2022/05/16 01:50:45;;;;;;;9.73;3.50;;;12.80;99.90;;;;;;4995472;28;20049;-79
2022/05/16 01:53:12;;;;;;;5.07;3.42;;;12.80;99.90;;;;;;5011830;28;20084;-78
2022/05/16 01:55:38;;;;;;;6.78;3.78;;;12.80;99.90;;;;;;5011972;28;20103;-81
2022/05/16 01:58:05;;;;;;;7.03;3.40;;;12.70;99.90;;;;;;5015416;28;20045;-79
2022/05/16 02:00:31;;;;;;;7.10;3.60;;;12.70;99.90;;;;;;5035536;28;20045;-79
2022/05/16 02:02:58;;;;;;;6.53;3.40;;;12.70;99.90;;;;;;5024760;28;20053;-79
2022/05/16 02:05:24;;;;;;;5.63;3.72;;;12.70;99.90;;;;;;5042969;28;20049;-79
2022/05/16 02:07:50;;;;;;;8.48;3.70;;;12.70;99.90;;;;;;5027449;28;20075;-78
2022/05/16 02:10:19;;;;;;;5.57;3.53;;;12.70;99.90;;;;;;5044035;28;20050;-79
2022/05/16 02:12:45;;;;;;;7.47;3.72;;;12.70;99.90;;;;;;5025978;28;20044;-78
2022/05/16 02:15:14;;;;;;;7.93;3.55;;;12.60;99.90;;;;;;5007521;28;20105;-80
2022/05/16 02:17:40;;;;;;;6.50;3.58;;;12.60;99.90;;;;;;5021906;28;20056;-78
2022/05/16 02:20:07;;;;;;;7.80;3.67;;;12.60;99.90;;;;;;5024309;28;20050;-78
2022/05/16 02:25:17;;;;;;;5.40;3.40;;;12.60;99.90;;;;;;5055671;28;20487;-78
2022/05/16 02:27:43;;;;;;;8.88;3.53;;;12.60;99.90;;;;;;5037809;28;20064;-78
2022/05/16 02:30:10;;;;;;;7.55;3.80;;;12.60;99.90;;;;;;5022778;28;20089;-78
2022/05/16 02:32:36;;;;;;;8.57;4.00;;;12.60;99.90;;;;;;5038599;28;20034;-78
2022/05/16 02:35:02;;;;;;;5.72;3.90;;;12.60;99.90;;;;;;5023618;28;20053;-78
2022/05/16 02:37:28;;;;;;;7.47;3.85;;;12.60;99.90;;;;;;5036771;28;20064;-78
2022/05/16 02:39:54;;;;;;;7.75;4.00;;;12.60;99.90;;;;;;5037873;28;20053;-79
2022/05/16 02:42:22;;;;;;;7.97;3.83;;;12.60;99.90;;;;;;5000876;28;20068;-78
2022/05/16 02:44:52;;;;;;;10.52;4.30;;;12.60;99.90;;;;;;5021082;28;20045;-78
2022/05/16 02:47:19;;;;;;;8.60;4.00;;;12.50;99.90;;;;;;5024160;28;20053;-78
2022/05/16 02:49:45;;;;;;;8.30;4.00;;;12.50;99.90;;;;;;5040256;28;20041;-79
2022/05/16 02:52:11;;;;;;;6.53;4.20;;;12.50;99.90;;;;;;5041489;28;20037;-79
2022/05/16 02:54:37;;;;;;;7.57;4.05;;;12.50;99.90;;;;;;5022060;28;20060;-78
2022/05/16 02:57:05;;;;;;;6.70;3.70;;;12.50;99.90;;;;;;5036328;28;20411;-79
2022/05/16 02:59:32;;;;;;;7.53;4.07;;;12.50;99.90;;;;;;5014531;28;20052;-79
2022/05/16 03:02:04;;;;;;;7.00;3.90;;;12.40;99.90;;;;;;5012231;28;20049;-78
2022/05/16 03:04:30;;;;;;;7.03;3.80;;;12.40;99.90;;;;;;5026863;28;20100;-79
2022/05/16 03:06:56;;;;;;;7.95;4.20;;;12.40;99.90;;;;;;5026322;28;20506;-78
2022/05/16 03:09:24;;;;;;;6.43;3.63;;;12.40;99.90;;;;;;5026531;28;20057;-79
2022/05/16 03:11:50;;;;;;;9.38;4.00;;;12.40;99.90;;;;;;5011226;28;20045;-80
2022/05/16 03:14:16;;;;;;;6.75;3.72;;;12.40;99.90;;;;;;5011018;28;20736;-79
2022/05/16 03:16:41;;;;;;;8.43;4.13;;;12.40;99.90;;;;;;5027012;28;20049;-80
2022/05/16 03:19:07;;;;;;;7.65;4.18;;;12.40;99.90;;;;;;5027701;28;20392;-80
2022/05/16 03:21:34;;;;;;;7.22;4.30;;;12.30;99.90;;;;;;5033890;28;20045;-80
2022/05/16 03:24:00;;;;;;;8.32;4.25;;;12.30;99.90;;;;;;5027134;28;20049;-80
2022/05/16 03:26:28;;;;;;;6.95;4.30;;;12.30;99.90;;;;;;5010295;28;20084;-80
2022/05/16 03:28:54;;;;;;;9.27;4.47;;;12.30;99.90;;;;;;5011095;28;20053;-80
2022/05/16 03:31:20;;;;;;;6.80;4.30;;;12.20;99.90;;;;;;5012965;28;20100;-80
2022/05/16 03:33:47;;;;;;;7.57;4.40;;;12.30;99.90;;;;;;5014593;28;20049;-80
2022/05/16 03:36:14;;;;;;;8.50;3.60;;;12.20;99.90;;;;;;5030363;28;20561;-79
2022/05/16 03:41:25;;;;;;;6.05;3.75;;;12.20;99.90;;;;;;5017190;28;20059;-79
2022/05/16 03:43:51;;;;;;;7.10;3.65;;;12.20;99.90;;;;;;5014203;28;20160;-80
2022/05/16 03:46:17;;;;;;;6.25;3.97;;;12.20;99.90;;;;;;5030223;28;20045;-80
2022/05/16 03:48:44;;;;;;;6.75;3.83;;;12.20;99.90;;;;;;5029972;28;20053;-81
2022/05/16 03:51:13;;;;;;;6.63;4.20;;;12.20;99.90;;;;;;5030376;28;20053;-80
2022/05/16 03:53:48;;;;;;;6.18;3.80;;;12.20;99.90;;;;;;5029892;28;20130;-80
2022/05/16 03:56:22;;;;;;;7.53;3.63;;;12.20;99.90;;;;;;5028434;28;20408;-80
2022/05/16 03:58:48;;;;;;;7.43;3.40;;;12.10;99.90;;;;;;5029596;28;20163;-80
2022/05/16 04:01:15;;;;;;;7.78;3.97;;;12.10;99.90;;;;;;5013077;28;20140;-80
2022/05/16 04:03:41;;;;;;;7.57;3.30;;;12.10;99.90;;;;;;5030064;28;20052;-80
2022/05/16 04:06:07;;;;;;;7.07;3.55;;;12.10;99.90;;;;;;5029145;28;20128;-80
2022/05/16 04:08:34;;;;;;;5.07;2.90;;;12.10;99.90;;;;;;5028542;28;20059;-80
2022/05/16 04:11:01;;;;;;;8.27;3.45;;;12.10;99.90;;;;;;5013917;28;20103;-80
2022/05/16 04:13:27;;;;;;;6.32;3.75;;;12.10;99.90;;;;;;5014091;28;20461;-80
2022/05/16 04:15:53;;;;;;;6.18;3.80;;;12.10;99.90;;;;;;5028856;28;20058;-80
2022/05/16 04:18:19;;;;;;;6.40;3.10;;;12.20;99.90;;;;;;5014069;28;20132;-80
2022/05/16 04:20:45;;;;;;;8.85;3.17;;;12.20;99.90;;;;;;5028095;28;20538;-81
2022/05/16 04:23:11;;;;;;;5.05;2.92;;;12.20;99.90;;;;;;5029988;28;20041;-80
2022/05/16 04:25:40;;;;;;;4.60;3.25;;;12.20;99.90;;;;;;5012357;28;20084;-81
2022/05/16 04:28:08;;;;;;;4.60;3.13;;;12.20;99.90;;;;;;5014508;28;20041;-80
2022/05/16 04:30:37;;;;;;;4.82;3.22;;;12.20;99.90;;;;;;5029014;28;20076;-80
2022/05/16 04:33:03;;;;;;;6.03;3.50;;;12.20;99.90;;;;;;5029036;28;20052;-79
2022/05/16 04:35:29;;;;;;;4.97;2.95;;;12.20;99.90;;;;;;5012828;28;20120;-78
2022/05/16 04:37:55;;;;;;;7.10;3.13;;;12.20;99.90;;;;;;5014446;28;20132;-78
2022/05/16 04:40:21;;;;;;;7.20;3.08;;;12.20;99.90;;;;;;5028965;28;20050;-78
2022/05/16 04:42:48;;;;;;;5.57;3.00;;;12.30;99.90;;;;;;5011646;28;20113;-79
2022/05/16 04:45:22;;;;;;;5.68;3.05;;;12.20;99.90;;;;;;5019664;28;20045;-78
2022/05/16 04:47:55;;;;;;;7.63;2.88;;;12.30;99.90;;;;;;5028577;28;20510;-79
2022/05/16 04:50:29;;;;;;;5.60;3.13;;;12.30;99.90;;;;;;5029859;28;20053;-79
2022/05/16 04:52:56;;;;;;;5.82;3.20;;;12.30;99.90;;;;;;5045429;28;20037;-79
2022/05/16 04:55:22;;;;;;;6.70;3.85;;;12.40;99.90;;;;;;5028835;28;20107;-79
2022/05/16 04:57:49;;;;;;;5.55;3.13;;;12.40;99.90;;;;;;5011903;28;20053;-79
2022/05/16 05:00:17;;;;;;;6.85;3.17;;;12.40;99.90;;;;;;5013310;28;20041;-79
2022/05/16 05:02:44;;;;;;;6.10;3.38;;;12.50;99.90;;;;;;5029119;28;20047;-82
2022/05/16 05:05:11;;;;;;;6.45;3.33;;;12.50;99.90;;;;;;5013705;28;20441;-79
2022/05/16 05:07:37;;;;;;;6.35;3.10;;;12.50;99.90;;;;;;5011157;28;20081;-79
2022/05/16 05:15:38;;;;;;;6.65;3.28;;;12.70;99.90;;;;;;5015029;28;19925;-79
2022/05/16 05:18:04;;;;;;;5.55;3.15;;;12.80;99.90;;;;;;5017674;28;20045;-79
2022/05/16 05:20:32;;;;;;;5.47;2.70;;;12.80;99.90;;;;;;5036725;28;20048;-79
2022/05/16 05:22:59;;;;;;;5.82;2.80;;;12.90;99.90;;;;;;5050911;28;20048;-79
2022/05/16 05:25:25;;;;;;;6.88;3.00;;;13.00;99.90;;;;;;5027960;28;20390;-82
2022/05/16 05:27:51;;;;;;;6.15;2.92;;;13.10;99.90;;;;;;5011369;28;20076;-80
2022/05/16 05:30:24;;;;;;;6.75;2.80;;;13.20;99.90;;;;;;5011215;28;20064;-80
2022/05/16 05:32:51;;;;;;;4.80;2.65;;;13.30;99.90;;;;;;5025377;28;20906;-80
2022/05/16 05:35:17;;;;;;;4.00;3.00;;;13.40;99.90;;;;;;5011068;28;20061;-80
2022/05/16 05:37:43;;;;;;;5.50;2.78;;;13.50;99.90;;;;;;5027640;28;20049;-80
2022/05/16 05:40:11;;;;;;;6.38;2.97;;;13.70;99.90;;;;;;5009450;28;20049;-79
2022/05/16 05:42:37;;;;;;;7.03;3.10;;;13.80;99.90;;;;;;5012212;28;20052;-80
2022/05/16 05:45:05;;;;;;;6.18;3.15;;;13.90;99.90;;;;;;5011045;28;20506;-80
2022/05/16 05:47:31;;;;;;;5.97;2.42;;;14.00;99.90;;;;;;5009318;28;20049;-82
2022/05/16 05:49:59;;;;;;;5.10;2.60;;;14.10;99.90;;;;;;5027126;28;20056;-81
2022/05/16 05:52:28;;;;;;;5.88;2.78;;;14.20;99.90;;;;;;5010998;28;20073;-81
2022/05/16 05:54:55;;;;;;;6.35;2.85;;;14.20;99.90;;;;;;5027715;28;20115;-81
2022/05/16 05:57:21;;;;;;;6.78;2.70;;;14.40;99.90;;;;;;5027859;28;20053;-81
2022/05/16 05:59:47;;;;;;;5.22;2.70;;;14.40;99.90;;;;;;5010972;28;20071;-81
2022/05/16 06:02:14;;;;;;;4.80;2.78;;;14.50;99.90;;;;;;5026848;28;20072;-80
2022/05/16 06:04:41;;;;;;;3.47;2.30;;;14.70;99.90;;;;;;5025966;28;20123;-82
2022/05/16 06:07:07;;;;;;;7.88;2.70;;;14.80;99.90;;;;;;5027363;28;20049;-81
2022/05/16 06:09:33;;;;;;;6.45;2.42;;;15.10;99.90;;;;;;5010893;28;20098;-81
2022/05/16 06:11:59;;;;;;;5.63;2.65;;;15.30;99.90;;;;;;5027292;28;20049;-80
2022/05/16 06:14:28;;;;;;;6.47;2.97;;;15.40;99.90;;;;;;5010107;28;20656;-80
2022/05/16 06:16:54;;;;;;;4.55;2.20;;;15.50;99.90;;;;;;5026273;28;20494;-81
2022/05/16 06:19:20;;;;;;;5.80;2.72;;;15.60;99.90;;;;;;5024675;28;20049;-80
2022/05/16 06:21:49;;;;;;;6.72;3.55;;;15.70;99.90;;;;;;5022376;28;20159;-82
2022/05/16 06:27:02;;;;;;;7.40;2.80;;;15.90;99.90;;;;;;5027033;28;20057;-81
2022/05/16 06:29:28;;;;;;;6.32;2.65;;;16.00;99.90;;;;;;5011485;28;20063;-82
2022/05/16 06:31:54;;;;;;;5.93;2.47;;;16.00;99.90;;;;;;5025781;28;20049;-84
2022/05/16 06:34:20;;;;;;;6.47;2.47;;;16.00;99.90;;;;;;5027762;28;20085;-84
2022/05/16 06:36:46;;;;;;;4.57;2.20;;;16.10;99.90;;;;;;5010334;28;20095;-84
2022/05/16 06:39:12;;;;;;;5.93;2.45;;;16.10;99.90;;;;;;5018725;28;20129;-83
2022/05/16 06:41:38;;;;;;;6.57;2.80;;;16.20;99.90;;;;;;5010470;28;20057;-84
2022/05/16 06:44:04;;;;;;;8.52;2.63;;;16.20;99.90;;;;;;5010080;28;20099;-84
2022/05/16 06:46:30;;;;;;;6.28;2.45;;;16.30;99.90;;;;;;4990774;28;20060;-85
2022/05/16 06:48:56;;;;;;;5.72;2.22;;;16.50;99.90;;;;;;5026404;28;20047;-84
2022/05/16 06:51:22;;;;;;;6.07;2.78;;;16.60;99.90;;;;;;4959702;28;20087;-86
2022/05/16 06:53:48;;;;;;;4.95;2.75;;;16.70;99.90;;;;;;4988616;28;20049;-85
2022/05/16 06:56:19;;;;;;;4.90;2.72;;;16.90;99.90;;;;;;5005617;28;20049;-84
2022/05/16 06:58:45;;;;;;;5.72;2.50;;;16.40;99.90;;;;;;5008236;28;20072;-85
2022/05/16 07:01:11;;;;;;;6.55;2.55;;;17.20;99.90;;;;;;4794677;28;20063;-85
2022/05/16 07:03:40;;;;;;;5.70;2.72;;;17.40;99.90;;;;;;4970272;28;20045;-85
2022/05/16 07:06:06;;;;;;;7.35;2.55;;;17.60;99.90;;;;;;4991438;28;20081;-85
2022/05/16 07:08:33;;;;;;;4.68;2.42;;;17.80;99.90;;;;;;5011575;28;20062;-84
2022/05/16 07:10:59;;;;;;;5.38;2.60;;;18.10;99.90;;;;;;5012563;28;20054;-85
2022/05/16 07:13:26;;;;;;;5.80;2.20;;;18.20;99.90;;;;;;5003010;28;20057;-85
2022/05/16 07:15:58;;;;;;;5.80;2.55;;;18.40;99.90;;;;;;4992803;28;20100;-85
2022/05/16 07:18:24;;;;;;;8.23;2.70;;;18.30;99.90;;;;;;4992065;28;20479;-85
2022/05/16 07:20:50;;;;;;;6.13;2.58;;;18.60;99.90;;;;;;5011589;28;20053;-85
2022/05/16 07:23:21;;;;;;;6.28;2.67;;;18.70;99.90;;;;;;5010236;28;20137;-86
2022/05/16 07:28:33;;;;;;;5.18;2.42;;;18.80;99.90;;;;;;5009199;28;20499;-84
2022/05/16 07:31:10;;;;;;;6.35;2.35;;;18.90;99.90;;;;;;5012767;28;20057;-87
2022/05/16 07:33:39;;;;;;;4.47;2.15;;;19.00;99.90;;;;;;5013099;28;20034;-86
2022/05/16 07:36:05;;;;;;;7.15;2.10;;;19.10;99.90;;;;;;4992593;28;20054;-85
2022/05/16 07:38:36;;;;;;;4.82;2.25;;;19.20;99.90;;;;;;5009840;28;20069;-87
2022/05/16 07:41:02;;;;;;;4.47;2.35;;;19.40;99.90;;;;;;5010688;28;20050;-86
2022/05/16 07:43:28;;;;;;;5.97;2.20;;;19.50;99.90;;;;;;5011904;28;20054;-86
2022/05/16 07:45:54;;;;;;;5.10;2.08;;;19.60;99.90;;;;;;5011620;28;20052;-85
2022/05/16 07:48:20;;;;;;;6.35;2.65;;;19.80;99.90;;;;;;4996263;28;20099;-87
2022/05/16 07:50:49;;;;;;;6.20;2.22;;;20.10;99.90;;;;;;5012396;28;20046;-85
2022/05/16 07:53:16;;;;;;;7.32;2.40;;;20.40;99.90;;;;;;5007280;28;20448;-84
2022/05/16 07:55:49;;;;;;;5.15;2.17;;;20.70;99.90;;;;;;5008865;28;20050;-82
2022/05/16 07:58:15;;;;;;;7.22;2.33;;;21.00;99.90;;;;;;5008124;28;20054;-82
2022/05/16 08:00:42;;;;;;;6.63;2.55;;;21.20;99.90;;;;;;4977354;28;20053;-82
2022/05/16 08:03:16;;;;;;;6.43;2.38;;;21.40;99.90;;;;;;5027378;28;20044;-82
2022/05/16 08:05:42;;;;;;;6.38;2.25;;;21.50;99.90;;;;;;4985557;28;20129;-82
2022/05/16 08:10:53;;;;;;;5.80;2.40;;;22.00;99.90;;;;;;5009704;28;20064;-82
2022/05/16 08:13:19;;;;;;;7.72;2.60;;;22.20;99.90;;;;;;4996990;28;20121;-81
2022/05/16 08:15:47;;;;;;;5.10;2.22;;;22.20;99.90;;;;;;4987086;28;20041;-86
2022/05/16 08:18:13;;;;;;;9.65;2.75;;;22.50;99.90;;;;;;5012075;28;20049;-84
2022/05/16 08:20:42;;;;;;;5.13;2.30;;;22.70;99.90;;;;;;4985149;28;20046;-83
2022/05/16 08:23:12;;;;;;;5.35;2.35;;;23.00;99.90;;;;;;5011448;28;20054;-84
2022/05/16 08:25:39;;;;;;;4.38;2.05;;;23.20;99.90;;;;;;5011273;28;20042;-85
2022/05/16 08:28:07;;;;;;;4.97;2.28;;;23.30;99.90;;;;;;4992498;28;20089;-84
2022/05/16 08:30:33;;;;;;;4.88;2.60;;;23.30;99.90;;;;;;4994109;28;20108;-85
2022/05/16 08:33:01;;;;;;;5.45;2.50;;;23.20;99.90;;;;;;5009611;28;20212;-85
2022/05/16 08:35:28;;;;;;;5.68;2.20;;;23.10;99.90;;;;;;5017967;28;20076;-85
2022/05/16 08:40:47;;;;;;;4.63;2.15;;;23.00;99.90;;;;;;5014902;28;20061;-86
2022/05/16 08:43:24;;;;;;;6.75;2.50;;;22.90;99.90;;;;;;5024693;28;20423;-84
2022/05/16 08:46:00;;;;;;;6.90;2.50;;;22.90;99.90;;;;;;5007152;28;20104;-85
2022/05/16 08:48:34;;;;;;;6.30;2.70;;;22.90;99.90;;;;;;4988621;28;20073;-85
2022/05/16 08:51:29;;;;;;;5.63;2.47;;;22.90;99.90;;;;;;4991159;28;20050;-85
2022/05/16 08:54:12;;;;;;;6.63;2.25;;;23.00;99.90;;;;;;5009172;28;20053;-85
2022/05/16 08:56:44;;;;;;;5.53;2.47;;;22.90;99.90;;;;;;5010454;28;20138;-85
2022/05/16 08:59:20;;;;;;;4.80;2.33;;;22.90;99.90;;;;;;5006934;28;20079;-85
2022/05/16 09:01:55;;;;;;;12.30;2.85;;;22.90;99.90;;;;;;4991771;28;20046;-86
2022/05/16 09:04:25;;;;;;;4.72;2.33;;;22.80;99.90;;;;;;4990761;28;20052;-84
2022/05/16 09:07:04;;;;;;;6.10;2.20;;;22.90;99.90;;;;;;5009944;28;20041;-85
2022/05/16 09:09:52;;;;;;;7.43;2.85;;;22.90;99.90;;;;;;5008291;28;20054;-84
2022/05/16 09:12:17;;;;;;;5.90;2.60;;;22.90;99.90;;;;;;4991902;28;20129;-82
2022/05/16 09:15:05;;;;;;;6.57;2.20;;;23.00;99.90;;;;;;5000074;28;20136;-82
2022/05/16 09:17:59;;;;;;;5.80;2.50;;;23.10;99.90;;;;;;5007877;28;20069;-84
2022/05/16 09:20:43;;;;;;;5.97;2.50;;;23.20;99.90;;;;;;4988859;28;20049;-81
2022/05/16 09:23:22;;;;;;;7.85;2.75;;;23.40;99.90;;;;;;4999735;28;20054;-81
2022/05/16 09:26:08;;;;;;;9.48;2.90;;;23.60;99.90;;;;;;5006874;28;20168;-81
2022/05/16 09:28:42;;;;;;;5.85;2.70;;;23.60;99.00;;;;;;5007045;28;20129;-82
2022/05/16 09:31:17;;;;;;;8.63;2.40;;;23.60;99.60;;;;;;5008415;28;20093;-81
2022/05/16 09:33:50;;;;;;;7.53;2.60;;;23.80;99.70;;;;;;5007880;28;20060;-82
2022/05/16 09:36:22;;;;;;;5.03;2.50;;;23.90;99.60;;;;;;5008857;28;20554;-82
2022/05/16 09:38:48;;;;;;;11.48;2.88;;;24.00;99.10;;;;;;5008366;28;20396;-81
2022/05/16 09:41:19;;;;;;;10.35;2.92;;;24.10;99.20;;;;;;5015868;28;20061;-82
2022/05/16 09:44:02;;;;;;;5.70;2.25;;;24.00;99.00;;;;;;5007636;28;20045;-82
2022/05/16 09:46:48;;;;;;;6.72;2.40;;;23.90;99.30;;;;;;5006485;28;20442;-83
2022/05/16 09:49:23;;;;;;;8.00;3.20;;;23.70;99.00;;;;;;5024490;28;20399;-83
2022/05/16 09:51:57;;;;;;;6.30;3.10;;;23.60;99.20;;;;;;5008638;28;20099;-82
2022/05/16 09:54:37;;;;;;;6.20;2.80;;;23.50;99.40;;;;;;5006956;28;20090;-82
2022/05/16 09:57:20;;;;;;;8.32;3.05;;;23.40;99.40;;;;;;4990083;28;20064;-82
2022/05/16 10:00:00;;;;;;;5.75;2.88;;;23.30;99.40;;;;;;5000773;28;20049;-83
2022/05/16 10:02:28;;;;;;;7.43;2.80;;;23.20;99.40;;;;;;4990348;28;20049;-82
2022/05/16 10:05:01;;;;;;;8.68;2.75;;;23.30;99.70;;;;;;5006555;28;20145;-82
2022/05/16 10:10:09;;;;;;;7.43;3.22;;;23.40;99.60;;;;;;5115553;27;1299768;-82
2022/05/16 10:12:35;;;;;;;8.38;3.15;;;23.40;99.60;;;;;;5142603;27;20146;-82
2022/05/16 10:15:01;;;;;;;4.68;2.42;;;23.50;99.50;;;;;;5142940;27;20148;-82
2022/05/16 10:17:37;;;;;;;7.55;2.83;;;23.60;99.60;;;;;;5124175;27;20099;-82
2022/05/16 10:20:19;;;;;;;6.22;2.70;;;23.70;99.30;;;;;;5140662;27;20129;-84
2022/05/16 10:22:45;;;;;;;7.78;3.08;;;23.80;99.30;;;;;;5124776;27;20773;-84
2022/05/16 10:25:21;;;;;;;9.13;3.00;;;24.00;99.10;;;;;;5122856;27;20502;-85
2022/05/16 10:27:51;;;;;;;6.90;3.00;;;24.00;98.90;;;;;;5141714;27;20124;-83
2022/05/16 10:30:24;;;;;;;9.82;3.65;;;24.10;98.90;;;;;;5124188;27;20060;-84
2022/05/16 10:35:50;;;;;;;7.25;3.22;;;24.20;98.70;;;;;;5158815;27;20642;-85
2022/05/16 10:38:43;;;;;;;9.13;3.10;;;24.30;98.90;;;;;;5139722;27;20046;-87
2022/05/16 10:41:21;;;;;;;8.77;3.00;;;24.70;98.90;;;;;;5140452;27;20082;-83
2022/05/16 10:44:17;;;;;;;6.63;3.20;;;25.30;98.60;;;;;;5158541;27;20471;-83
2022/05/16 10:46:53;;;;;;;6.93;3.38;;;25.70;97.40;;;;;;5141983;27;20046;-82
2022/05/16 10:49:24;;;;;;;9.35;2.92;;;26.30;97.20;;;;;;5124534;27;20046;-83
2022/05/16 10:52:08;;;;;;;5.25;2.60;;;26.80;96.70;;;;;;5148473;27;20042;-83
2022/05/16 10:54:35;;;;;;;8.10;3.67;;;27.20;96.50;;;;;;5130269;27;20046;-82
2022/05/16 10:57:25;;;;;;;6.32;2.70;;;27.30;95.00;;;;;;5145453;27;20046;-83
2022/05/16 11:00:14;;;;;;;6.35;3.15;;;27.60;94.60;;;;;;5159011;27;20053;-83
2022/05/16 11:03:28;;;;;;;8.98;3.50;;;27.90;92.60;;;;;;5159332;27;20046;-83
2022/05/16 11:06:17;;;;;;;6.68;3.30;;;28.00;92.10;;;;;;5058195;27;20088;-83
2022/05/16 11:09:02;;;;;;;8.82;3.08;;;28.50;91.50;;;;;;5146238;27;20062;-83
2022/05/16 11:11:30;;;;;;;6.95;2.90;;;28.90;91.70;;;;;;5166010;27;20050;-84
2022/05/16 11:14:17;;;;;;;6.43;3.00;;;29.30;90.50;;;;;;5156009;27;20046;-84
2022/05/16 11:16:43;;;;;;;6.18;3.10;;;29.30;90.10;;;;;;5154794;27;20475;-83
2022/05/16 11:19:13;;;;;;;6.10;3.65;;;29.20;89.20;;;;;;5123177;27;20548;-83
2022/05/16 11:22:21;;;;;;;7.07;3.00;;;29.20;86.80;;;;;;5125282;27;20047;-83
2022/05/16 11:25:08;;;;;;;5.90;3.00;;;29.20;85.60;;;;;;5045462;28;20057;-83
2022/05/16 11:27:55;;;;;;;5.47;2.80;;;29.30;86.90;;;;;;5060044;27;20062;-83
2022/05/16 11:30:34;;;;;;;4.97;3.10;;;29.00;85.90;;;;;;5146150;27;20050;-84
2022/05/16 11:33:05;;;;;;;4.95;3.05;;;29.00;84.70;;;;;;5106206;27;20076;-84
2022/05/16 11:35:47;;;;;;;6.53;3.40;;;28.80;85.50;;;;;;5139586;27;20035;-83
2022/05/16 11:38:24;;;;;;;6.18;3.45;;;28.70;86.00;;;;;;5139178;27;20043;-84
2022/05/16 11:41:21;;;;;;;5.55;3.35;;;28.60;86.20;;;;;;5123923;27;20383;-83
2022/05/16 11:43:50;;;;;;;6.63;3.33;;;28.50;87.60;;;;;;5107565;27;20058;-83
2022/05/16 11:46:45;;;;;;;7.13;4.10;;;28.30;89.20;;;;;;5142950;27;20086;-83
2022/05/16 11:49:26;;;;;;;7.10;3.90;;;28.10;88.60;;;;;;5123145;27;20082;-83
2022/05/16 11:52:16;;;;;;;7.68;3.85;;;27.90;88.70;;;;;;5137676;27;20051;-84
2022/05/16 11:54:50;;;;;;;7.93;4.07;;;27.80;87.90;;;;;;5123032;27;20051;-84
2022/05/16 12:03:17;;;;;;;8.35;4.82;;;27.90;86.30;;;;;;5140748;27;20055;-84
2022/05/16 12:06:04;;;;;;;6.55;4.28;;;28.00;86.00;;;;;;5139742;27;20119;-84
2022/05/16 12:08:39;;;;;;;8.65;5.03;;;28.10;86.30;;;;;;5122527;27;20061;-83
2022/05/16 12:11:05;;;;;;;8.70;4.80;;;28.10;85.80;;;;;;5122290;27;20504;-83
2022/05/16 12:13:34;;;;;;;11.30;5.93;;;28.10;86.00;;;;;;5122547;27;20091;-84
2022/05/16 12:16:12;;;;;;;8.73;5.72;;;28.00;87.10;;;;;;5138077;27;20103;-85
2022/05/16 12:18:44;;;;;;;7.57;5.30;;;27.80;89.70;;;;;;5124095;27;20039;-84
2022/05/16 12:21:19;;;;;;;9.77;5.50;;;27.50;90.80;;;;;;5138718;27;20127;-83
2022/05/16 12:23:49;;;;;;;6.85;5.90;;;27.20;92.00;;;;;;5139446;27;20586;-84
2022/05/16 12:26:26;;;;;;;8.93;5.65;;;26.80;92.80;;;;;;5122389;27;20055;-83
2022/05/16 12:29:11;;;;;;;8.88;6.03;;;26.40;93.60;;;;;;5121952;27;20681;-84
2022/05/16 12:31:48;;;;;;;8.23;6.23;;;26.00;94.80;;;;;;5120516;27;20055;-84
2022/05/16 12:34:41;;;;;;;9.23;6.10;;;25.40;96.30;;;;;;5138589;27;20081;-83
2022/05/16 12:37:15;;;;;;;7.95;5.55;;;25.10;97.40;;;;;;5121985;27;20171;-84
2022/05/16 12:39:59;;;;;;;7.38;5.05;;;24.80;98.60;;;;;;5104605;27;20058;-84
2022/05/16 12:42:55;;;;;;;7.90;5.25;;;24.90;99.50;;;;;;5122852;27;20073;-82
2022/05/16 12:45:53;;;;;;;9.43;5.30;;;25.10;99.70;;;;;;5140311;27;20112;-83
2022/05/16 12:48:52;;;;;;;10.77;5.07;;;25.10;99.90;;;;;;5121392;27;20049;-83
2022/05/16 12:52:00;;;;;;;6.82;4.70;;;24.90;99.90;;;;;;5105114;27;20046;-83
2022/05/16 12:54:46;;;;;;;11.73;5.72;;;24.80;99.90;;;;;;5079403;28;20047;-83
2022/05/16 12:57:21;;;;;;;10.35;5.68;;;24.80;99.90;;;;;;5133463;27;20058;-83
2022/05/16 13:00:15;;;;;;;8.43;5.70;;;24.70;99.90;;;;;;5121889;27;20053;-83
2022/05/16 13:02:47;;;;;;;9.20;5.53;;;24.50;99.90;;;;;;5139860;27;20066;-83
2022/05/16 13:06:18;;;;;;;6.03;4.47;;;24.40;99.90;;;;;;5106731;27;20039;-84
2022/05/16 13:09:10;;;;;;;8.73;5.20;;;24.20;99.90;;;;;;5137490;27;20107;-84
2022/05/16 13:11:42;;;;;;;9.85;5.22;;;23.40;99.90;;;;;;5093208;27;20400;-84
2022/05/16 13:14:36;;;;;;;9.07;4.85;;;23.00;99.90;;;;;;5118513;27;20039;-82
2022/05/16 13:17:10;;;;;;;7.72;5.13;;;22.70;99.90;;;;;;5084171;27;20142;-85
2022/05/16 13:19:43;;;;;;;8.00;5.65;;;22.50;99.90;;;;;;5082953;28;20048;-86
2022/05/16 13:22:21;;;;;;;8.15;5.80;;;22.50;99.90;;;;;;5113332;27;20044;-86
2022/05/16 13:24:52;;;;;;;11.90;5.90;;;22.60;99.90;;;;;;5099101;27;20414;-85
2022/05/16 13:30:19;;;;;;;9.48;6.13;;;22.60;99.90;;;;;;5118138;27;20050;-86
2022/05/16 13:32:46;;;;;;;9.25;6.22;;;22.80;99.90;;;;;;5101378;27;20131;-85
2022/05/16 13:35:15;;;;;;;8.90;6.10;;;22.80;99.90;;;;;;5081610;27;20047;-85
2022/05/16 13:37:43;;;;;;;9.85;7.40;;;22.80;99.90;;;;;;5103369;27;20075;-86
2022/05/16 13:40:33;;;;;;;10.18;7.20;;;22.70;99.90;;;;;;5086851;27;20046;-87
2022/05/16 13:43:00;;;;;;;9.50;6.80;;;22.60;99.90;;;;;;5118442;27;20051;-85
2022/05/16 13:45:31;;;;;;;9.18;6.55;;;22.50;99.90;;;;;;5101454;27;20535;-85
2022/05/16 13:48:07;;;;;;;10.40;6.63;;;22.60;99.90;;;;;;5070606;27;20039;-85